createdAt,value
2019-02-14T00:00:12.032Z,3.57
2019-02-14T00:02:40.739Z,3.10
2019-02-14T00:05:16.138Z,3.10
2019-02-14T00:07:39.809Z,2.80
2019-02-14T00:10:10.003Z,3.17
2019-02-14T00:12:38.693Z,3.00
2019-02-14T00:15:10.572Z,3.10
2019-02-14T00:17:39.252Z,3.00
2019-02-14T00:20:09.726Z,3.07
2019-02-14T00:22:38.528Z,3.10
2019-02-14T00:25:07.587Z,3.93
2019-02-14T00:27:36.560Z,2.57
2019-02-14T00:30:07.026Z,3.30
2019-02-14T00:32:35.716Z,2.80
2019-02-14T00:35:06.216Z,3.03
2019-02-14T00:37:34.880Z,2.67
2019-02-14T00:40:04.480Z,2.87
2019-02-14T00:42:33.152Z,3.43
2019-02-14T00:45:01.819Z,3.00
2019-02-14T00:47:30.496Z,3.00
2019-02-14T00:49:59.206Z,3.00
2019-02-14T00:52:27.867Z,2.83
2019-02-14T00:54:56.550Z,3.20
2019-02-14T00:57:25.221Z,3.67
2019-02-14T00:59:53.924Z,3.50
2019-02-14T01:02:22.590Z,3.77
2019-02-14T01:04:51.257Z,3.57
2019-02-14T01:07:19.955Z,3.50
2019-02-14T01:09:48.619Z,3.53
2019-02-14T01:12:17.332Z,3.20
2019-02-14T01:14:46.024Z,3.63
2019-02-14T01:17:14.716Z,3.53
2019-02-14T01:19:43.384Z,3.73
2019-02-14T01:22:12.056Z,4.03
2019-02-14T01:24:40.721Z,4.13
2019-02-14T01:27:09.427Z,4.13
2019-02-14T01:29:38.089Z,3.93
2019-02-14T01:32:06.779Z,4.17
2019-02-14T01:34:35.983Z,4.60
2019-02-14T01:37:04.702Z,4.10
2019-02-14T01:39:33.339Z,4.60
2019-02-14T01:42:02.099Z,4.23
2019-02-14T01:44:30.768Z,4.20
2019-02-14T01:46:59.447Z,4.07
2019-02-14T01:49:28.112Z,4.50
2019-02-14T01:51:56.826Z,5.13
2019-02-14T01:54:25.533Z,6.30
2019-02-14T01:56:54.238Z,5.73
2019-02-14T01:59:22.902Z,5.30
2019-02-14T02:01:51.682Z,5.70
2019-02-14T02:04:20.356Z,6.23
2019-02-14T02:06:49.055Z,6.23
2019-02-14T02:09:17.732Z,6.43
2019-02-14T02:11:46.409Z,6.33
2019-02-14T02:14:15.076Z,5.77
2019-02-14T02:16:43.755Z,6.00
2019-02-14T02:19:12.436Z,6.13
2019-02-14T02:21:41.102Z,6.37
2019-02-14T02:24:09.776Z,6.43
2019-02-14T02:26:38.436Z,6.87
2019-02-14T02:29:07.110Z,7.03
2019-02-14T02:31:36.950Z,6.30
2019-02-14T02:34:05.635Z,6.73
2019-02-14T02:36:34.337Z,7.50
2019-02-14T02:39:04.619Z,5.93
2019-02-14T02:41:33.299Z,6.60
2019-02-14T02:44:02.017Z,7.23
2019-02-14T02:46:30.681Z,7.70
2019-02-14T02:48:59.354Z,7.30
2019-02-14T02:51:28.020Z,7.97
2019-02-14T02:53:56.690Z,7.20
2019-02-14T02:56:25.370Z,7.30
2019-02-14T02:58:54.058Z,7.87
2019-02-14T03:01:22.735Z,7.97
2019-02-14T03:03:51.404Z,7.93
2019-02-14T03:06:20.187Z,8.50
2019-02-14T03:08:48.805Z,7.53
2019-02-14T03:11:17.490Z,7.67
2019-02-14T03:13:46.200Z,9.07
2019-02-14T03:16:14.851Z,9.30
2019-02-14T03:18:43.522Z,8.70
2019-02-14T03:21:12.179Z,8.63
2019-02-14T03:23:40.860Z,6.77
2019-02-14T03:26:09.524Z,8.47
2019-02-14T03:28:38.210Z,8.30
2019-02-14T03:31:06.896Z,7.57
2019-02-14T03:33:35.580Z,8.00
2019-02-14T03:36:04.255Z,8.47
2019-02-14T03:38:32.932Z,9.17
2019-02-14T03:41:01.607Z,8.50
2019-02-14T03:43:30.276Z,7.73
2019-02-14T03:45:58.955Z,8.63
2019-02-14T03:48:27.628Z,9.00
2019-02-14T03:50:56.565Z,8.60
2019-02-14T03:53:25.320Z,9.63
2019-02-14T03:55:53.997Z,9.47
2019-02-14T03:58:22.673Z,8.83
2019-02-14T04:00:51.318Z,9.27
2019-02-14T04:03:19.994Z,8.53
2019-02-14T04:05:48.664Z,8.43
2019-02-14T04:08:17.334Z,8.63
2019-02-14T04:10:46.020Z,8.37
2019-02-14T04:13:15.188Z,8.70
2019-02-14T04:15:46.620Z,8.70
2019-02-14T04:18:15.136Z,9.63
2019-02-14T04:20:43.808Z,8.60
2019-02-14T04:23:12.522Z,9.20
2019-02-14T04:25:41.238Z,7.87
2019-02-14T04:28:09.910Z,9.70
2019-02-14T04:30:38.578Z,9.23
2019-02-14T04:33:07.250Z,9.17
2019-02-14T04:35:35.927Z,9.60
2019-02-14T04:38:04.649Z,9.10
2019-02-14T04:40:33.875Z,8.43
2019-02-14T04:43:02.633Z,8.73
2019-02-14T04:45:31.294Z,8.47
2019-02-14T04:47:59.988Z,8.50
2019-02-14T04:50:28.659Z,9.60
2019-02-14T04:52:57.323Z,9.83
2019-02-14T04:55:25.990Z,9.70
2019-02-14T04:57:54.670Z,9.53
2019-02-14T05:00:23.340Z,8.80
2019-02-14T05:02:52.008Z,9.20
2019-02-14T05:05:20.699Z,8.53
2019-02-14T05:07:49.465Z,9.30
2019-02-14T05:10:18.143Z,7.90
2019-02-14T05:12:46.837Z,8.77
2019-02-14T05:15:15.538Z,9.07
2019-02-14T05:17:44.308Z,8.63
2019-02-14T05:20:13.479Z,8.10
2019-02-14T05:22:42.152Z,10.20
2019-02-14T05:25:11.137Z,8.80
2019-02-14T05:27:39.853Z,8.30
2019-02-14T05:30:13.832Z,10.83
2019-02-14T05:32:42.493Z,8.73
2019-02-14T05:35:11.166Z,8.53
2019-02-14T05:37:39.926Z,8.63
2019-02-14T05:40:12.232Z,7.60
2019-02-14T05:42:41.096Z,9.23
2019-02-14T05:45:12.063Z,8.00
2019-02-14T05:47:40.765Z,8.03
2019-02-14T05:50:14.129Z,8.83
2019-02-14T05:52:42.793Z,8.30
2019-02-14T05:55:12.364Z,7.53
2019-02-14T05:57:41.082Z,8.73
2019-02-14T06:00:16.391Z,8.77
2019-02-14T06:02:45.069Z,9.40
2019-02-14T06:05:13.738Z,8.23
2019-02-14T06:07:42.420Z,8.00
2019-02-14T06:10:11.897Z,8.50
2019-02-14T06:12:40.574Z,8.53
2019-02-14T06:15:11.723Z,9.00
2019-02-14T06:17:40.391Z,8.80
2019-02-14T06:20:12.771Z,8.70
2019-02-14T06:22:41.551Z,7.87
2019-02-14T06:25:12.027Z,8.10
2019-02-14T06:27:40.974Z,7.97
2019-02-14T06:30:14.643Z,9.00
2019-02-14T06:32:43.301Z,8.40
2019-02-14T06:35:12.597Z,7.93
2019-02-14T06:37:41.368Z,8.70
2019-02-14T06:40:14.678Z,8.37
2019-02-14T06:42:49.375Z,9.00
2019-02-14T06:45:20.894Z,9.20
2019-02-14T06:47:52.586Z,8.50
2019-02-14T06:50:21.345Z,9.57
2019-02-14T06:52:50.093Z,8.97
2019-02-14T06:55:18.818Z,10.10
2019-02-14T06:57:47.548Z,13.03
2019-02-14T07:00:17.058Z,9.90
2019-02-14T07:02:46.371Z,9.43
2019-02-14T07:05:15.155Z,9.50
2019-02-14T07:07:43.849Z,8.30
2019-02-14T07:10:13.200Z,8.63
2019-02-14T07:12:41.868Z,10.10
2019-02-14T07:15:14.701Z,9.17
2019-02-14T07:17:43.369Z,10.00
2019-02-14T07:20:16.689Z,9.17
2019-02-14T07:22:45.580Z,9.87
2019-02-14T07:25:14.369Z,9.27
2019-02-14T07:27:43.034Z,9.97
2019-02-14T07:30:23.106Z,8.10
2019-02-14T07:32:52.141Z,9.03
2019-02-14T07:35:20.946Z,10.20
2019-02-14T07:37:49.622Z,8.97
2019-02-14T07:40:18.411Z,8.83
2019-02-14T07:42:47.284Z,8.57
2019-02-14T07:45:17.373Z,58.27
2019-02-14T07:47:46.030Z,8.87
2019-02-14T07:50:15.018Z,9.23
2019-02-14T07:52:43.791Z,9.47
2019-02-14T07:55:15.747Z,9.57
2019-02-14T07:57:44.701Z,8.47
2019-02-14T08:00:15.184Z,8.17
2019-02-14T08:02:43.900Z,8.97
2019-02-14T08:05:12.607Z,8.23
2019-02-14T08:07:41.335Z,7.33
2019-02-14T08:10:12.922Z,8.20
2019-02-14T08:12:41.605Z,9.03
2019-02-14T08:15:12.374Z,7.93
2019-02-14T08:17:41.079Z,8.13
2019-02-14T08:20:18.065Z,8.67
2019-02-14T08:22:46.724Z,9.10
2019-02-14T08:25:15.494Z,7.03
2019-02-14T08:27:44.211Z,7.77
2019-02-14T08:30:16.036Z,7.80
2019-02-14T08:32:44.783Z,6.97
2019-02-14T08:35:13.472Z,7.80
2019-02-14T08:37:45.718Z,7.03
2019-02-14T08:40:27.194Z,7.57
2019-02-14T08:42:55.838Z,9.63
2019-02-14T08:45:24.812Z,6.37
2019-02-14T08:47:53.652Z,7.53
2019-02-14T08:50:22.316Z,7.77
2019-02-14T08:52:50.993Z,7.37
2019-02-14T08:55:21.146Z,7.20
2019-02-14T08:57:50.287Z,7.23
2019-02-14T09:00:19.153Z,6.87
2019-02-14T09:02:48.180Z,6.70
2019-02-14T09:05:17.136Z,6.10
2019-02-14T09:07:54.332Z,7.03
2019-02-14T09:10:18.534Z,6.80
2019-02-14T09:12:47.205Z,6.10
2019-02-14T09:15:16.091Z,7.13
2019-02-14T09:17:45.080Z,6.40
2019-02-14T09:20:16.710Z,7.20
2019-02-14T09:22:45.687Z,6.97
2019-02-14T09:25:14.451Z,5.87
2019-02-14T09:27:43.769Z,7.40
2019-02-14T09:30:14.352Z,9.80
2019-02-14T09:32:43.071Z,7.00
2019-02-14T09:35:11.843Z,5.10
2019-02-14T09:37:41.327Z,6.53
2019-02-14T09:40:15.338Z,6.20
2019-02-14T09:42:46.874Z,5.70
2019-02-14T09:45:15.726Z,5.80
2019-02-14T09:47:44.552Z,5.20
2019-02-14T09:50:16.609Z,6.27
2019-02-14T09:52:45.391Z,5.40
2019-02-14T09:55:14.831Z,6.03
2019-02-14T09:57:43.528Z,6.73
2019-02-14T10:00:16.975Z,5.07
2019-02-14T10:02:48.639Z,5.50
2019-02-14T10:05:17.400Z,6.13
2019-02-14T10:07:46.073Z,6.63
2019-02-14T10:10:23.712Z,5.27
2019-02-14T10:12:56.350Z,5.53
2019-02-14T10:15:25.046Z,5.10
2019-02-14T10:17:53.748Z,6.13
2019-02-14T10:20:22.467Z,5.67
2019-02-14T10:22:51.182Z,6.57
2019-02-14T10:25:19.866Z,5.53
2019-02-14T10:27:48.726Z,5.37
2019-02-14T10:30:21.707Z,5.13
2019-02-14T10:32:50.685Z,5.77
2019-02-14T10:35:20.929Z,6.23
2019-02-14T10:37:51.109Z,5.80
2019-02-14T10:40:19.765Z,6.53
2019-02-14T10:42:48.991Z,6.40
2019-02-14T10:45:20.220Z,7.17
2019-02-14T10:47:49.386Z,5.07
2019-02-14T10:50:18.350Z,5.93
2019-02-14T10:52:55.582Z,5.00
2019-02-14T10:55:24.438Z,5.57
2019-02-14T10:57:53.472Z,5.47
2019-02-14T11:00:26.288Z,5.27
2019-02-14T11:02:55.552Z,6.03
2019-02-14T11:05:24.340Z,4.87
2019-02-14T11:07:54.613Z,4.63
2019-02-14T11:10:23.348Z,5.20
2019-02-14T11:12:52.130Z,6.30
2019-02-14T11:15:22.617Z,5.30
2019-02-14T11:17:51.417Z,6.23
2019-02-14T11:20:20.334Z,5.40
2019-02-14T11:22:49.573Z,5.97
2019-02-14T11:25:30.152Z,6.27
2019-02-14T11:27:59.036Z,6.20
2019-02-14T11:30:27.878Z,5.07
2019-02-14T11:32:56.586Z,7.70
2019-02-14T11:35:25.273Z,6.23
2019-02-14T11:37:53.964Z,6.70
2019-02-14T11:40:22.835Z,5.97
2019-02-14T11:42:51.694Z,6.80
2019-02-14T11:45:21.927Z,6.80
2019-02-14T11:47:50.615Z,5.73
2019-02-14T11:50:19.683Z,10.50
2019-02-14T11:52:48.408Z,14.50
2019-02-14T11:55:17.090Z,6.92
2019-02-14T11:57:45.779Z,5.70
2019-02-14T12:00:23.157Z,5.63
2019-02-14T12:02:55.781Z,5.93
2019-02-14T12:05:22.299Z,5.40
2019-02-14T12:07:51.086Z,6.30
2019-02-14T12:10:20.351Z,6.10
2019-02-14T12:12:49.070Z,6.10
2019-02-14T12:15:17.732Z,5.37
2019-02-14T12:17:48.271Z,5.93
2019-02-14T12:20:16.974Z,5.47
2019-02-14T12:22:47.021Z,6.17
2019-02-14T12:25:25.200Z,7.17
2019-02-14T12:27:53.939Z,8.60
2019-02-14T12:30:22.893Z,8.00
2019-02-14T12:32:52.174Z,7.60
2019-02-14T12:35:21.116Z,8.10
2019-02-14T12:37:49.759Z,6.87
2019-02-14T12:40:18.963Z,12.33
2019-02-14T12:42:47.849Z,10.20
2019-02-14T12:45:21.560Z,6.37
2019-02-14T12:47:51.158Z,16.53
2019-02-14T12:50:20.145Z,8.90
2019-02-14T12:53:08.102Z,9.17
2019-02-14T12:55:36.974Z,7.60
2019-02-14T12:58:05.769Z,10.73
2019-02-14T13:00:34.575Z,7.80
2019-02-14T13:03:03.273Z,15.50
2019-02-14T13:05:32.025Z,7.43
2019-02-14T13:08:00.764Z,8.23
2019-02-14T13:10:29.438Z,7.47
2019-02-14T13:12:58.383Z,7.70
2019-02-14T13:15:28.011Z,7.60
2019-02-14T13:17:56.672Z,7.80
2019-02-14T13:20:25.523Z,7.63
2019-02-14T13:22:54.283Z,7.77
2019-02-14T13:25:23.395Z,7.47
2019-02-14T13:27:52.479Z,8.87
2019-02-14T13:30:40.494Z,7.37
2019-02-14T13:33:09.587Z,7.90
2019-02-14T13:35:38.358Z,8.47
2019-02-14T13:38:07.567Z,8.20
2019-02-14T13:40:36.286Z,9.70
2019-02-14T13:43:05.551Z,9.33
2019-02-14T13:45:34.240Z,8.30
2019-02-14T13:48:02.963Z,9.67
2019-02-14T13:50:31.926Z,10.27
2019-02-14T13:53:01.546Z,8.97
2019-02-14T13:55:30.566Z,8.23
2019-02-14T13:57:59.443Z,9.13
2019-02-14T14:00:34.324Z,9.37
2019-02-14T14:03:03.199Z,8.20
2019-02-14T14:05:32.363Z,9.47
2019-02-14T14:08:01.545Z,8.97
2019-02-14T14:10:30.366Z,9.73
2019-02-14T14:12:59.114Z,9.83
2019-02-14T14:15:28.003Z,8.50
2019-02-14T14:17:56.695Z,11.73
2019-02-14T14:20:25.854Z,8.77
2019-02-14T14:22:54.537Z,9.50
2019-02-14T14:25:26.011Z,10.40
2019-02-14T14:27:54.696Z,9.30
2019-02-14T14:30:23.625Z,11.93
2019-02-14T14:32:52.607Z,9.60
2019-02-14T14:35:21.282Z,9.23
2019-02-14T14:37:50.208Z,9.60
2019-02-14T14:40:20.461Z,10.07
2019-02-14T14:42:51.057Z,10.30
2019-02-14T14:45:31.255Z,10.20
2019-02-14T14:48:00.180Z,10.43
2019-02-14T14:50:28.945Z,10.47
2019-02-14T14:52:57.990Z,10.60
2019-02-14T14:55:26.901Z,9.80
2019-02-14T14:57:55.723Z,9.27
2019-02-14T15:00:24.615Z,10.53
2019-02-14T15:02:53.358Z,10.03
2019-02-14T15:05:22.014Z,9.40
2019-02-14T15:07:50.708Z,8.67
2019-02-14T15:10:19.919Z,8.70
2019-02-14T15:12:48.699Z,8.50
2019-02-14T15:15:17.363Z,8.77
2019-02-14T15:17:46.280Z,9.40
2019-02-14T15:20:14.898Z,9.37
2019-02-14T15:22:43.761Z,10.43
2019-02-14T15:25:12.700Z,9.53
2019-02-14T15:27:41.569Z,10.27
2019-02-14T15:30:10.255Z,11.10
2019-02-14T15:32:38.919Z,13.90
2019-02-14T15:35:09.260Z,11.13
2019-02-14T15:37:37.976Z,12.10
2019-02-14T15:40:09.983Z,11.30
2019-02-14T15:42:39.131Z,12.13
2019-02-14T15:45:09.029Z,11.57
2019-02-14T15:47:37.716Z,10.37
2019-02-14T15:50:09.148Z,11.37
2019-02-14T15:52:38.155Z,11.40
2019-02-14T15:55:07.937Z,11.63
2019-02-14T15:57:36.610Z,11.83
2019-02-14T16:00:10.750Z,10.67
2019-02-14T16:02:39.212Z,12.10
2019-02-14T16:05:08.768Z,11.97
2019-02-14T16:07:39.105Z,10.63
2019-02-14T16:10:17.553Z,11.50
2019-02-14T16:12:41.292Z,11.73
2019-02-14T16:15:10.267Z,11.93
2019-02-14T16:17:38.944Z,11.60
2019-02-14T16:20:08.617Z,10.80
2019-02-14T16:22:37.288Z,11.03
2019-02-14T16:25:07.460Z,11.13
2019-02-14T16:27:36.302Z,9.33
2019-02-14T16:30:08.881Z,10.83
2019-02-14T16:32:37.212Z,10.43
2019-02-14T16:35:07.486Z,12.83
2019-02-14T16:37:36.400Z,10.67
2019-02-14T16:40:07.106Z,11.47
2019-02-14T16:42:35.829Z,10.60
2019-02-14T16:45:06.181Z,9.87
2019-02-14T16:47:34.895Z,11.93
2019-02-14T16:50:03.945Z,10.83
2019-02-14T16:52:32.687Z,11.67
2019-02-14T16:55:01.359Z,11.97
2019-02-14T16:57:30.029Z,11.40
2019-02-14T16:59:58.701Z,12.23
2019-02-14T17:02:27.394Z,12.70
2019-02-14T17:04:56.056Z,12.47
2019-02-14T17:07:24.735Z,13.07
2019-02-14T17:09:53.404Z,13.50
2019-02-14T17:12:22.093Z,13.30
2019-02-14T17:14:50.766Z,10.57
2019-02-14T17:17:27.669Z,11.80
2019-02-14T17:19:49.901Z,13.00
2019-02-14T17:22:18.567Z,12.77
2019-02-14T17:24:47.245Z,12.60
2019-02-14T17:27:15.951Z,13.20
2019-02-14T17:29:44.699Z,13.73
2019-02-14T17:32:13.386Z,12.27
2019-02-14T17:34:42.046Z,12.20
2019-02-14T17:37:10.721Z,11.77
2019-02-14T17:39:39.420Z,11.60
2019-02-14T17:42:08.051Z,12.93
2019-02-14T17:44:36.724Z,12.03
2019-02-14T17:47:05.402Z,11.03
2019-02-14T17:49:34.111Z,12.73
2019-02-14T17:52:02.895Z,13.40
2019-02-14T17:54:31.573Z,12.33
2019-02-14T17:57:00.244Z,12.77
2019-02-14T17:59:28.919Z,12.80
2019-02-14T18:01:57.615Z,12.80
2019-02-14T18:04:26.288Z,12.70
2019-02-14T18:06:55.055Z,12.33
2019-02-14T18:09:23.736Z,13.23
2019-02-14T18:11:52.409Z,12.80
2019-02-14T18:14:21.071Z,11.87
2019-02-14T18:16:49.761Z,13.00
2019-02-14T18:19:18.420Z,12.43
2019-02-14T18:21:47.092Z,12.97
2019-02-14T18:24:15.869Z,11.90
2019-02-14T18:26:44.563Z,12.97
2019-02-14T18:29:13.221Z,12.77
2019-02-14T18:31:41.898Z,13.13
2019-02-14T18:34:10.557Z,13.13
2019-02-14T18:36:39.225Z,12.97
2019-02-14T18:39:07.993Z,12.93
2019-02-14T18:41:36.698Z,14.50
2019-02-14T18:44:05.358Z,13.37
2019-02-14T18:46:34.041Z,14.07
2019-02-14T18:49:02.814Z,13.17
2019-02-14T18:51:31.502Z,13.73
2019-02-14T18:54:00.176Z,14.23
2019-02-14T18:56:28.862Z,13.60
2019-02-14T18:58:57.511Z,14.07
2019-02-14T19:01:26.195Z,14.90
2019-02-14T19:03:54.854Z,14.27
2019-02-14T19:06:23.532Z,14.17
2019-02-14T19:08:52.211Z,16.03
2019-02-14T19:11:20.932Z,13.83
2019-02-14T19:13:49.614Z,14.10
2019-02-14T19:16:18.267Z,14.13
2019-02-14T19:18:46.949Z,14.03
2019-02-14T19:21:15.634Z,14.30
2019-02-14T19:23:44.354Z,14.97
2019-02-14T19:26:13.097Z,14.40
2019-02-14T19:28:41.761Z,15.67
2019-02-14T19:31:10.473Z,15.53
2019-02-14T19:33:39.149Z,14.23
2019-02-14T19:36:07.821Z,15.37
2019-02-14T19:38:36.531Z,14.47
2019-02-14T19:41:05.202Z,14.53
2019-02-14T19:43:33.883Z,13.27
2019-02-14T19:46:02.851Z,15.50
2019-02-14T19:48:31.531Z,15.20
2019-02-14T19:51:00.182Z,15.57
2019-02-14T19:53:28.857Z,14.40
2019-02-14T19:55:57.529Z,14.67
2019-02-14T19:58:26.309Z,15.17
2019-02-14T20:00:54.971Z,13.73
2019-02-14T20:03:23.651Z,14.33
2019-02-14T20:05:52.354Z,14.27
2019-02-14T20:08:21.012Z,14.97
2019-02-14T20:10:49.687Z,14.37
2019-02-14T20:13:18.355Z,15.10
2019-02-14T20:15:47.022Z,13.90
2019-02-14T20:18:16.378Z,13.10
2019-02-14T20:20:45.020Z,12.90
2019-02-14T20:23:13.683Z,13.27
2019-02-14T20:25:42.402Z,13.93
2019-02-14T20:28:11.081Z,13.90
2019-02-14T20:30:39.824Z,13.60
2019-02-14T20:33:08.493Z,14.43
2019-02-14T20:35:37.175Z,14.53
2019-02-14T20:38:05.849Z,14.20
2019-02-14T20:40:36.040Z,14.27
2019-02-14T20:43:04.706Z,15.53
2019-02-14T20:45:33.423Z,15.23
2019-02-14T20:48:02.167Z,15.17
2019-02-14T20:50:30.968Z,14.90
2019-02-14T20:52:59.649Z,14.93
2019-02-14T20:55:28.673Z,14.83
2019-02-14T20:57:57.305Z,14.63
2019-02-14T21:00:30.622Z,14.50
2019-02-14T21:02:59.287Z,15.90
2019-02-14T21:05:28.167Z,15.67
2019-02-14T21:07:56.842Z,16.30
2019-02-14T21:10:25.591Z,15.60
2019-02-14T21:12:54.260Z,14.97
2019-02-14T21:15:22.926Z,15.77
2019-02-14T21:17:51.611Z,16.20
2019-02-14T21:20:20.278Z,15.53
2019-02-14T21:22:48.946Z,15.20
2019-02-14T21:25:22.491Z,16.00
2019-02-14T21:27:48.156Z,16.27
2019-02-14T21:30:20.841Z,16.47
2019-02-14T21:32:49.511Z,16.67
2019-02-14T21:35:18.173Z,17.53
2019-02-14T21:37:46.863Z,16.90
2019-02-14T21:40:16.870Z,17.93
2019-02-14T21:42:45.676Z,17.97
2019-02-14T21:45:15.340Z,16.87
2019-02-14T21:47:44.035Z,17.03
2019-02-14T21:50:13.880Z,17.63
2019-02-14T21:52:42.541Z,16.83
2019-02-14T21:55:14.650Z,16.00
2019-02-14T21:57:43.975Z,16.57
2019-02-14T22:00:18.215Z,16.03
2019-02-14T22:02:47.172Z,15.63
2019-02-14T22:05:15.831Z,16.97
2019-02-14T22:07:44.535Z,16.37
2019-02-14T22:10:14.190Z,16.17
2019-02-14T22:12:43.979Z,18.30
2019-02-14T22:15:24.295Z,15.60
2019-02-14T22:17:52.963Z,15.80
2019-02-14T22:20:21.621Z,16.00
2019-02-14T22:22:50.293Z,15.70
2019-02-14T22:25:18.968Z,16.00
2019-02-14T22:27:47.647Z,15.37
2019-02-14T22:30:17.566Z,14.90
2019-02-14T22:32:46.859Z,15.40
2019-02-14T22:35:15.656Z,15.47
2019-02-14T22:37:44.320Z,15.13
2019-02-14T22:40:13.889Z,16.13
2019-02-14T22:42:47.226Z,15.33
2019-02-14T22:45:14.849Z,14.30
2019-02-14T22:47:44.638Z,14.77
2019-02-14T22:50:13.995Z,14.57
2019-02-14T22:52:45.932Z,14.23
2019-02-14T22:55:21.351Z,15.13
2019-02-14T22:57:50.241Z,14.30
2019-02-14T23:00:32.281Z,13.47
2019-02-14T23:03:01.388Z,14.70
2019-02-14T23:05:30.450Z,14.80
2019-02-14T23:07:59.268Z,14.70
2019-02-14T23:10:28.110Z,14.03
2019-02-14T23:12:56.834Z,14.43
2019-02-14T23:15:25.717Z,14.53
2019-02-14T23:17:54.504Z,14.33
2019-02-14T23:20:23.499Z,14.53
2019-02-14T23:22:52.213Z,15.07
2019-02-14T23:25:21.252Z,15.43
2019-02-14T23:27:50.093Z,15.77
2019-02-14T23:30:18.846Z,15.53
2019-02-14T23:32:47.647Z,15.23
2019-02-14T23:35:16.354Z,15.37
2019-02-14T23:37:48.142Z,14.70
2019-02-14T23:40:16.963Z,14.83
2019-02-14T23:42:47.392Z,16.03
2019-02-14T23:45:16.084Z,15.00
2019-02-14T23:47:44.828Z,14.83
2019-02-14T23:50:13.653Z,14.53
2019-02-14T23:52:45.197Z,16.10
2019-02-14T23:55:13.957Z,16.03
2019-02-14T23:57:42.730Z,15.77
